sensor_id;sensor_type;location;lat;lon;timestamp;P1;durP1;ratioP1;P2;durP2;ratioP2
80249;SDS011;69561;37.974;23.708;2023-07-30T00:01:32;6.30;;;3.00;;
80249;SDS011;69561;37.974;23.708;2023-07-30T00:03:58;5.50;;;3.20;;
80249;SDS011;69561;37.974;23.708;2023-07-30T00:06:24;8.05;;;3.22;;
80249;SDS011;69561;37.974;23.708;2023-07-30T00:08:50;4.70;;;3.15;;
80249;SDS011;69561;37.974;23.708;2023-07-30T00:11:16;5.57;;;3.25;;
80249;SDS011;69561;37.974;23.708;2023-07-30T00:13:41;3.88;;;2.80;;
80249;SDS011;69561;37.974;23.708;2023-07-30T00:16:07;3.63;;;2.80;;
80249;SDS011;69561;37.974;23.708;2023-07-30T00:18:33;5.38;;;3.42;;
80249;SDS011;69561;37.974;23.708;2023-07-30T00:20:59;5.93;;;3.00;;
80249;SDS011;69561;37.974;23.708;2023-07-30T00:23:24;8.63;;;2.75;;
80249;SDS011;69561;37.974;23.708;2023-07-30T00:25:50;5.65;;;3.10;;
80249;SDS011;69561;37.974;23.708;2023-07-30T00:28:16;3.20;;;2.90;;
80249;SDS011;69561;37.974;23.708;2023-07-30T00:30:42;3.05;;;2.75;;
80249;SDS011;69561;37.974;23.708;2023-07-30T00:33:07;7.15;;;3.00;;
80249;SDS011;69561;37.974;23.708;2023-07-30T00:35:33;4.18;;;2.67;;
80249;SDS011;69561;37.974;23.708;2023-07-30T00:37:59;5.78;;;3.03;;
80249;SDS011;69561;37.974;23.708;2023-07-30T00:40:24;4.60;;;2.70;;
80249;SDS011;69561;37.974;23.708;2023-07-30T00:42:50;5.00;;;2.80;;
80249;SDS011;69561;37.974;23.708;2023-07-30T00:45:16;5.38;;;3.08;;
80249;SDS011;69561;37.974;23.708;2023-07-30T00:47:42;4.70;;;2.85;;
80249;SDS011;69561;37.974;23.708;2023-07-30T00:50:08;4.57;;;2.75;;
80249;SDS011;69561;37.974;23.708;2023-07-30T00:52:36;4.68;;;2.63;;
80249;SDS011;69561;37.974;23.708;2023-07-30T00:55:02;6.30;;;2.95;;
80249;SDS011;69561;37.974;23.708;2023-07-30T00:57:28;5.50;;;2.80;;
80249;SDS011;69561;37.974;23.708;2023-07-30T00:59:55;5.05;;;2.90;;
80249;SDS011;69561;37.974;23.708;2023-07-30T01:02:22;4.45;;;2.50;;
80249;SDS011;69561;37.974;23.708;2023-07-30T01:04:48;6.72;;;2.95;;
80249;SDS011;69561;37.974;23.708;2023-07-30T01:07:14;6.45;;;2.70;;
80249;SDS011;69561;37.974;23.708;2023-07-30T01:09:40;7.75;;;2.78;;
80249;SDS011;69561;37.974;23.708;2023-07-30T01:12:07;5.65;;;2.70;;
80249;SDS011;69561;37.974;23.708;2023-07-30T01:14:33;3.20;;;2.42;;
80249;SDS011;69561;37.974;23.708;2023-07-30T01:17:03;4.03;;;2.67;;
80249;SDS011;69561;37.974;23.708;2023-07-30T01:19:29;4.68;;;2.50;;
80249;SDS011;69561;37.974;23.708;2023-07-30T01:21:55;2.78;;;2.45;;
80249;SDS011;69561;37.974;23.708;2023-07-30T01:24:21;5.47;;;2.53;;
80249;SDS011;69561;37.974;23.708;2023-07-30T01:26:59;4.90;;;2.55;;
80249;SDS011;69561;37.974;23.708;2023-07-30T01:29:38;3.63;;;2.33;;
80249;SDS011;69561;37.974;23.708;2023-07-30T01:32:07;2.77;;;2.40;;
80249;SDS011;69561;37.974;23.708;2023-07-30T01:34:36;2.97;;;2.13;;
80249;SDS011;69561;37.974;23.708;2023-07-30T01:37:09;3.92;;;2.40;;
80249;SDS011;69561;37.974;23.708;2023-07-30T01:39:37;8.07;;;2.50;;
80249;SDS011;69561;37.974;23.708;2023-07-30T01:42:05;4.40;;;2.30;;
80249;SDS011;69561;37.974;23.708;2023-07-30T01:44:31;8.25;;;2.90;;
80249;SDS011;69561;37.974;23.708;2023-07-30T01:46:57;6.05;;;2.30;;
80249;SDS011;69561;37.974;23.708;2023-07-30T01:49:22;4.95;;;2.50;;
80249;SDS011;69561;37.974;23.708;2023-07-30T01:51:48;4.63;;;2.30;;
80249;SDS011;69561;37.974;23.708;2023-07-30T01:54:14;3.88;;;2.53;;
80249;SDS011;69561;37.974;23.708;2023-07-30T01:56:40;3.28;;;2.40;;
80249;SDS011;69561;37.974;23.708;2023-07-30T01:59:05;5.20;;;2.47;;
80249;SDS011;69561;37.974;23.708;2023-07-30T02:01:31;5.50;;;2.58;;
80249;SDS011;69561;37.974;23.708;2023-07-30T02:03:57;3.83;;;2.15;;
80249;SDS011;69561;37.974;23.708;2023-07-30T02:06:22;4.00;;;2.28;;
80249;SDS011;69561;37.974;23.708;2023-07-30T02:08:48;2.70;;;2.28;;
80249;SDS011;69561;37.974;23.708;2023-07-30T02:11:14;5.35;;;2.50;;
80249;SDS011;69561;37.974;23.708;2023-07-30T02:13:39;4.00;;;2.33;;
80249;SDS011;69561;37.974;23.708;2023-07-30T02:16:06;3.28;;;2.40;;
80249;SDS011;69561;37.974;23.708;2023-07-30T02:18:31;2.55;;;1.98;;
80249;SDS011;69561;37.974;23.708;2023-07-30T02:20:58;4.22;;;2.17;;
80249;SDS011;69561;37.974;23.708;2023-07-30T02:23:24;6.65;;;2.17;;
80249;SDS011;69561;37.974;23.708;2023-07-30T02:25:49;5.55;;;2.10;;
80249;SDS011;69561;37.974;23.708;2023-07-30T02:28:15;5.05;;;2.13;;
80249;SDS011;69561;37.974;23.708;2023-07-30T02:30:41;3.00;;;1.95;;
80249;SDS011;69561;37.974;23.708;2023-07-30T02:33:07;3.33;;;2.40;;
80249;SDS011;69561;37.974;23.708;2023-07-30T02:35:32;6.82;;;2.47;;
80249;SDS011;69561;37.974;23.708;2023-07-30T02:37:58;5.85;;;1.95;;
80249;SDS011;69561;37.974;23.708;2023-07-30T02:40:24;6.88;;;2.22;;
80249;SDS011;69561;37.974;23.708;2023-07-30T02:42:49;6.28;;;1.95;;
80249;SDS011;69561;37.974;23.708;2023-07-30T02:45:15;6.80;;;2.17;;
80249;SDS011;69561;37.974;23.708;2023-07-30T02:47:41;4.90;;;1.90;;
80249;SDS011;69561;37.974;23.708;2023-07-30T02:50:07;3.13;;;2.30;;
80249;SDS011;69561;37.974;23.708;2023-07-30T02:52:34;3.25;;;2.20;;
80249;SDS011;69561;37.974;23.708;2023-07-30T02:54:59;5.53;;;2.10;;
80249;SDS011;69561;37.974;23.708;2023-07-30T02:57:25;6.15;;;2.15;;
80249;SDS011;69561;37.974;23.708;2023-07-30T02:59:50;3.40;;;2.20;;
80249;SDS011;69561;37.974;23.708;2023-07-30T03:02:16;4.90;;;2.20;;
80249;SDS011;69561;37.974;23.708;2023-07-30T03:04:42;4.38;;;2.13;;
80249;SDS011;69561;37.974;23.708;2023-07-30T03:07:08;3.03;;;1.90;;
80249;SDS011;69561;37.974;23.708;2023-07-30T03:09:34;4.10;;;2.10;;
80249;SDS011;69561;37.974;23.708;2023-07-30T03:12:00;4.53;;;2.05;;
80249;SDS011;69561;37.974;23.708;2023-07-30T03:14:27;4.20;;;2.20;;
80249;SDS011;69561;37.974;23.708;2023-07-30T03:16:52;3.45;;;2.00;;
80249;SDS011;69561;37.974;23.708;2023-07-30T03:19:18;6.20;;;2.05;;
80249;SDS011;69561;37.974;23.708;2023-07-30T03:21:44;3.13;;;1.90;;
80249;SDS011;69561;37.974;23.708;2023-07-30T03:24:09;3.13;;;1.80;;
80249;SDS011;69561;37.974;23.708;2023-07-30T03:26:35;2.67;;;1.98;;
80249;SDS011;69561;37.974;23.708;2023-07-30T03:29:01;2.28;;;1.83;;
80249;SDS011;69561;37.974;23.708;2023-07-30T03:31:27;3.97;;;1.90;;
80249;SDS011;69561;37.974;23.708;2023-07-30T03:33:53;4.18;;;2.17;;
80249;SDS011;69561;37.974;23.708;2023-07-30T03:36:19;6.03;;;2.08;;
80249;SDS011;69561;37.974;23.708;2023-07-30T03:38:45;7.65;;;2.03;;
80249;SDS011;69561;37.974;23.708;2023-07-30T03:41:11;6.05;;;2.33;;
80249;SDS011;69561;37.974;23.708;2023-07-30T03:43:37;2.63;;;2.22;;
80249;SDS011;69561;37.974;23.708;2023-07-30T03:46:02;3.10;;;2.05;;
80249;SDS011;69561;37.974;23.708;2023-07-30T03:48:28;10.70;;;2.25;;
80249;SDS011;69561;37.974;23.708;2023-07-30T03:50:54;5.85;;;2.33;;
80249;SDS011;69561;37.974;23.708;2023-07-30T03:53:20;3.92;;;2.10;;
80249;SDS011;69561;37.974;23.708;2023-07-30T03:55:47;4.15;;;2.13;;
80249;SDS011;69561;37.974;23.708;2023-07-30T03:58:13;5.05;;;2.03;;
80249;SDS011;69561;37.974;23.708;2023-07-30T04:00:39;5.07;;;1.73;;
80249;SDS011;69561;37.974;23.708;2023-07-30T04:03:04;4.82;;;1.90;;
80249;SDS011;69561;37.974;23.708;2023-07-30T04:05:30;5.03;;;2.08;;
80249;SDS011;69561;37.974;23.708;2023-07-30T04:07:56;3.75;;;1.95;;
80249;SDS011;69561;37.974;23.708;2023-07-30T04:10:22;7.45;;;1.83;;
80249;SDS011;69561;37.974;23.708;2023-07-30T04:12:47;2.88;;;1.85;;
80249;SDS011;69561;37.974;23.708;2023-07-30T04:15:14;3.90;;;2.05;;
80249;SDS011;69561;37.974;23.708;2023-07-30T04:17:41;8.13;;;2.10;;
80249;SDS011;69561;37.974;23.708;2023-07-30T04:20:07;6.78;;;2.20;;
80249;SDS011;69561;37.974;23.708;2023-07-30T04:22:36;6.22;;;1.80;;
80249;SDS011;69561;37.974;23.708;2023-07-30T04:25:02;4.40;;;1.95;;
80249;SDS011;69561;37.974;23.708;2023-07-30T04:27:28;5.22;;;2.22;;
80249;SDS011;69561;37.974;23.708;2023-07-30T04:29:54;4.35;;;2.05;;
80249;SDS011;69561;37.974;23.708;2023-07-30T04:32:20;6.47;;;2.17;;
80249;SDS011;69561;37.974;23.708;2023-07-30T04:34:45;3.75;;;2.10;;
80249;SDS011;69561;37.974;23.708;2023-07-30T04:37:11;5.25;;;2.05;;
80249;SDS011;69561;37.974;23.708;2023-07-30T04:39:37;5.32;;;2.10;;
80249;SDS011;69561;37.974;23.708;2023-07-30T04:42:03;7.63;;;2.20;;
80249;SDS011;69561;37.974;23.708;2023-07-30T04:44:29;7.03;;;2.00;;
80249;SDS011;69561;37.974;23.708;2023-07-30T04:46:55;4.93;;;1.98;;
80249;SDS011;69561;37.974;23.708;2023-07-30T04:49:21;5.78;;;1.90;;
80249;SDS011;69561;37.974;23.708;2023-07-30T04:51:46;7.80;;;2.30;;
80249;SDS011;69561;37.974;23.708;2023-07-30T04:54:12;2.78;;;1.90;;
80249;SDS011;69561;37.974;23.708;2023-07-30T04:56:38;9.48;;;2.22;;
80249;SDS011;69561;37.974;23.708;2023-07-30T04:59:03;3.65;;;1.80;;
80249;SDS011;69561;37.974;23.708;2023-07-30T05:01:29;4.60;;;1.70;;
80249;SDS011;69561;37.974;23.708;2023-07-30T05:03:56;6.40;;;2.10;;
80249;SDS011;69561;37.974;23.708;2023-07-30T05:06:22;6.22;;;1.58;;
80249;SDS011;69561;37.974;23.708;2023-07-30T05:08:48;4.63;;;1.80;;
80249;SDS011;69561;37.974;23.708;2023-07-30T05:11:14;6.05;;;1.95;;
80249;SDS011;69561;37.974;23.708;2023-07-30T05:13:39;6.38;;;2.13;;
80249;SDS011;69561;37.974;23.708;2023-07-30T05:16:05;6.22;;;1.98;;
80249;SDS011;69561;37.974;23.708;2023-07-30T05:18:31;3.33;;;2.10;;
80249;SDS011;69561;37.974;23.708;2023-07-30T05:20:57;6.65;;;1.88;;
80249;SDS011;69561;37.974;23.708;2023-07-30T05:23:23;4.32;;;2.15;;
80249;SDS011;69561;37.974;23.708;2023-07-30T05:25:49;5.80;;;2.22;;
80249;SDS011;69561;37.974;23.708;2023-07-30T05:28:14;4.60;;;2.17;;
80249;SDS011;69561;37.974;23.708;2023-07-30T05:30:40;3.60;;;1.67;;
80249;SDS011;69561;37.974;23.708;2023-07-30T05:33:06;3.67;;;1.90;;
80249;SDS011;69561;37.974;23.708;2023-07-30T05:35:31;3.58;;;1.98;;
80249;SDS011;69561;37.974;23.708;2023-07-30T05:37:57;7.25;;;1.80;;
80249;SDS011;69561;37.974;23.708;2023-07-30T05:40:23;4.30;;;1.98;;
80249;SDS011;69561;37.974;23.708;2023-07-30T05:42:48;5.25;;;2.00;;
80249;SDS011;69561;37.974;23.708;2023-07-30T05:45:14;4.28;;;1.83;;
80249;SDS011;69561;37.974;23.708;2023-07-30T05:47:40;4.53;;;2.30;;
80249;SDS011;69561;37.974;23.708;2023-07-30T05:50:06;5.35;;;1.98;;
80249;SDS011;69561;37.974;23.708;2023-07-30T05:52:32;9.27;;;2.20;;
80249;SDS011;69561;37.974;23.708;2023-07-30T05:54:58;3.70;;;1.77;;
80249;SDS011;69561;37.974;23.708;2023-07-30T05:57:24;3.88;;;1.83;;
80249;SDS011;69561;37.974;23.708;2023-07-30T05:59:49;3.50;;;2.17;;
80249;SDS011;69561;37.974;23.708;2023-07-30T06:02:15;6.30;;;1.88;;
80249;SDS011;69561;37.974;23.708;2023-07-30T06:04:41;5.22;;;2.28;;
80249;SDS011;69561;37.974;23.708;2023-07-30T06:07:06;5.53;;;2.05;;
80249;SDS011;69561;37.974;23.708;2023-07-30T06:09:32;2.47;;;1.90;;
80249;SDS011;69561;37.974;23.708;2023-07-30T06:11:58;5.05;;;2.00;;
80249;SDS011;69561;37.974;23.708;2023-07-30T06:14:24;2.03;;;1.80;;
80249;SDS011;69561;37.974;23.708;2023-07-30T06:16:50;4.22;;;1.80;;
80249;SDS011;69561;37.974;23.708;2023-07-30T06:19:16;5.78;;;2.03;;
80249;SDS011;69561;37.974;23.708;2023-07-30T06:21:42;4.72;;;2.05;;
80249;SDS011;69561;37.974;23.708;2023-07-30T06:24:08;5.78;;;1.70;;
80249;SDS011;69561;37.974;23.708;2023-07-30T06:26:33;5.47;;;1.77;;
80249;SDS011;69561;37.974;23.708;2023-07-30T06:28:59;4.47;;;1.63;;
80249;SDS011;69561;37.974;23.708;2023-07-30T06:31:25;3.92;;;2.00;;
80249;SDS011;69561;37.974;23.708;2023-07-30T06:33:50;4.53;;;1.70;;
80249;SDS011;69561;37.974;23.708;2023-07-30T06:36:16;6.43;;;1.95;;
80249;SDS011;69561;37.974;23.708;2023-07-30T06:38:42;2.25;;;1.50;;
80249;SDS011;69561;37.974;23.708;2023-07-30T06:41:07;4.40;;;1.58;;
80249;SDS011;69561;37.974;23.708;2023-07-30T06:43:33;5.70;;;1.70;;
80249;SDS011;69561;37.974;23.708;2023-07-30T06:45:59;3.95;;;1.58;;
80249;SDS011;69561;37.974;23.708;2023-07-30T06:48:25;3.30;;;1.42;;
80249;SDS011;69561;37.974;23.708;2023-07-30T06:50:51;2.92;;;1.40;;
80249;SDS011;69561;37.974;23.708;2023-07-30T06:53:16;4.95;;;1.85;;
80249;SDS011;69561;37.974;23.708;2023-07-30T06:55:42;2.25;;;1.50;;
80249;SDS011;69561;37.974;23.708;2023-07-30T06:58:08;11.20;;;1.67;;
80249;SDS011;69561;37.974;23.708;2023-07-30T07:00:35;4.68;;;1.58;;
80249;SDS011;69561;37.974;23.708;2023-07-30T07:03:01;3.33;;;1.50;;
80249;SDS011;69561;37.974;23.708;2023-07-30T07:05:26;2.80;;;1.50;;
80249;SDS011;69561;37.974;23.708;2023-07-30T07:07:52;3.60;;;1.65;;
80249;SDS011;69561;37.974;23.708;2023-07-30T07:10:18;2.78;;;1.50;;
80249;SDS011;69561;37.974;23.708;2023-07-30T07:12:43;3.80;;;1.85;;
80249;SDS011;69561;37.974;23.708;2023-07-30T07:15:09;6.55;;;1.38;;
80249;SDS011;69561;37.974;23.708;2023-07-30T07:17:35;4.45;;;1.70;;
80249;SDS011;69561;37.974;23.708;2023-07-30T07:20:01;3.85;;;1.50;;
80249;SDS011;69561;37.974;23.708;2023-07-30T07:22:28;4.65;;;1.48;;
80249;SDS011;69561;37.974;23.708;2023-07-30T07:24:54;3.03;;;1.70;;
80249;SDS011;69561;37.974;23.708;2023-07-30T07:27:20;4.80;;;1.58;;
80249;SDS011;69561;37.974;23.708;2023-07-30T07:29:48;3.60;;;1.70;;
80249;SDS011;69561;37.974;23.708;2023-07-30T07:32:14;3.88;;;1.65;;
80249;SDS011;69561;37.974;23.708;2023-07-30T07:34:39;4.40;;;1.35;;
80249;SDS011;69561;37.974;23.708;2023-07-30T07:37:05;2.55;;;1.60;;
80249;SDS011;69561;37.974;23.708;2023-07-30T07:39:32;2.25;;;1.33;;
80249;SDS011;69561;37.974;23.708;2023-07-30T07:41:58;3.28;;;1.45;;
80249;SDS011;69561;37.974;23.708;2023-07-30T07:44:24;4.93;;;1.45;;
80249;SDS011;69561;37.974;23.708;2023-07-30T07:46:50;2.60;;;1.70;;
80249;SDS011;69561;37.974;23.708;2023-07-30T07:49:15;5.05;;;1.38;;
80249;SDS011;69561;37.974;23.708;2023-07-30T07:51:41;2.28;;;1.27;;
80249;SDS011;69561;37.974;23.708;2023-07-30T07:54:07;2.63;;;1.75;;
80249;SDS011;69561;37.974;23.708;2023-07-30T07:56:32;2.58;;;1.40;;
80249;SDS011;69561;37.974;23.708;2023-07-30T07:58:58;5.88;;;1.38;;
80249;SDS011;69561;37.974;23.708;2023-07-30T08:01:24;6.10;;;1.55;;
80249;SDS011;69561;37.974;23.708;2023-07-30T08:03:50;2.88;;;1.40;;
80249;SDS011;69561;37.974;23.708;2023-07-30T08:06:16;3.67;;;1.40;;
80249;SDS011;69561;37.974;23.708;2023-07-30T08:08:41;3.17;;;1.38;;
80249;SDS011;69561;37.974;23.708;2023-07-30T08:11:07;7.60;;;1.45;;
80249;SDS011;69561;37.974;23.708;2023-07-30T08:13:34;3.63;;;1.33;;
80249;SDS011;69561;37.974;23.708;2023-07-30T08:16:01;3.17;;;1.40;;
80249;SDS011;69561;37.974;23.708;2023-07-30T08:18:27;3.78;;;1.63;;
80249;SDS011;69561;37.974;23.708;2023-07-30T08:20:53;1.90;;;1.50;;
80249;SDS011;69561;37.974;23.708;2023-07-30T08:23:19;3.47;;;1.60;;
80249;SDS011;69561;37.974;23.708;2023-07-30T08:25:44;5.38;;;1.55;;
80249;SDS011;69561;37.974;23.708;2023-07-30T08:28:10;2.78;;;1.48;;
80249;SDS011;69561;37.974;23.708;2023-07-30T08:30:36;8.20;;;1.60;;
80249;SDS011;69561;37.974;23.708;2023-07-30T08:33:02;6.97;;;1.73;;
80249;SDS011;69561;37.974;23.708;2023-07-30T08:35:28;5.00;;;1.65;;
80249;SDS011;69561;37.974;23.708;2023-07-30T08:37:54;5.57;;;1.50;;
80249;SDS011;69561;37.974;23.708;2023-07-30T08:40:21;5.60;;;1.60;;
80249;SDS011;69561;37.974;23.708;2023-07-30T08:42:49;12.13;;;1.80;;
80249;SDS011;69561;37.974;23.708;2023-07-30T08:45:16;9.38;;;1.70;;
80249;SDS011;69561;37.974;23.708;2023-07-30T08:47:42;4.57;;;1.85;;
80249;SDS011;69561;37.974;23.708;2023-07-30T08:50:08;6.75;;;1.50;;
80249;SDS011;69561;37.974;23.708;2023-07-30T08:52:34;1.63;;;1.50;;
80249;SDS011;69561;37.974;23.708;2023-07-30T08:55:01;5.57;;;1.90;;
80249;SDS011;69561;37.974;23.708;2023-07-30T08:57:31;3.00;;;1.63;;
80249;SDS011;69561;37.974;23.708;2023-07-30T09:00:04;4.47;;;1.70;;
80249;SDS011;69561;37.974;23.708;2023-07-30T09:05:04;5.75;;;1.52;;
80249;SDS011;69561;37.974;23.708;2023-07-30T09:07:31;3.85;;;1.40;;
80249;SDS011;69561;37.974;23.708;2023-07-30T09:09:56;5.82;;;1.80;;
80249;SDS011;69561;37.974;23.708;2023-07-30T09:12:30;3.22;;;1.83;;
80249;SDS011;69561;37.974;23.708;2023-07-30T09:14:56;2.97;;;1.50;;
80249;SDS011;69561;37.974;23.708;2023-07-30T09:17:22;4.72;;;1.58;;
80249;SDS011;69561;37.974;23.708;2023-07-30T09:19:48;3.47;;;1.50;;
80249;SDS011;69561;37.974;23.708;2023-07-30T09:22:26;3.58;;;1.30;;
80249;SDS011;69561;37.974;23.708;2023-07-30T09:24:53;4.30;;;1.55;;
80249;SDS011;69561;37.974;23.708;2023-07-30T09:27:20;6.43;;;1.35;;
80249;SDS011;69561;37.974;23.708;2023-07-30T09:29:58;3.58;;;1.50;;
80249;SDS011;69561;37.974;23.708;2023-07-30T09:32:29;4.60;;;1.65;;
80249;SDS011;69561;37.974;23.708;2023-07-30T09:37:41;4.28;;;1.40;;
80249;SDS011;69561;37.974;23.708;2023-07-30T09:40:08;3.65;;;1.45;;
80249;SDS011;69561;37.974;23.708;2023-07-30T09:42:37;4.75;;;1.40;;
80249;SDS011;69561;37.974;23.708;2023-07-30T09:45:06;4.18;;;1.45;;
80249;SDS011;69561;37.974;23.708;2023-07-30T09:47:37;6.00;;;1.70;;
80249;SDS011;69561;37.974;23.708;2023-07-30T09:50:03;4.93;;;1.35;;
80249;SDS011;69561;37.974;23.708;2023-07-30T09:52:29;5.82;;;1.65;;
80249;SDS011;69561;37.974;23.708;2023-07-30T09:54:57;2.97;;;1.77;;
80249;SDS011;69561;37.974;23.708;2023-07-30T09:57:23;6.20;;;1.50;;
80249;SDS011;69561;37.974;23.708;2023-07-30T09:59:49;2.00;;;1.73;;
80249;SDS011;69561;37.974;23.708;2023-07-30T10:58:36;3.50;;;1.65;;
80249;SDS011;69561;37.974;23.708;2023-07-30T11:01:03;6.85;;;2.00;;
80249;SDS011;69561;37.974;23.708;2023-07-30T11:03:29;3.50;;;2.00;;
80249;SDS011;69561;37.974;23.708;2023-07-30T11:05:56;6.57;;;2.13;;
80249;SDS011;69561;37.974;23.708;2023-07-30T11:08:35;2.25;;;1.65;;
80249;SDS011;69561;37.974;23.708;2023-07-30T11:11:02;2.83;;;1.67;;
80249;SDS011;69561;37.974;23.708;2023-07-30T11:13:28;4.20;;;1.80;;
80249;SDS011;69561;37.974;23.708;2023-07-30T11:15:54;2.10;;;1.80;;
80249;SDS011;69561;37.974;23.708;2023-07-30T11:18:20;3.80;;;2.00;;
80249;SDS011;69561;37.974;23.708;2023-07-30T11:20:46;3.55;;;1.65;;
80249;SDS011;69561;37.974;23.708;2023-07-30T11:23:21;4.07;;;1.83;;
80249;SDS011;69561;37.974;23.708;2023-07-30T11:25:48;3.78;;;1.80;;
80249;SDS011;69561;37.974;23.708;2023-07-30T11:28:15;10.82;;;1.83;;
80249;SDS011;69561;37.974;23.708;2023-07-30T11:31:16;3.53;;;1.48;;
80249;SDS011;69561;37.974;23.708;2023-07-30T11:33:47;4.53;;;1.60;;
80249;SDS011;69561;37.974;23.708;2023-07-30T11:36:20;3.63;;;1.70;;
80249;SDS011;69561;37.974;23.708;2023-07-30T11:38:50;4.18;;;1.80;;
80249;SDS011;69561;37.974;23.708;2023-07-30T11:41:18;13.40;;;1.80;;
80249;SDS011;69561;37.974;23.708;2023-07-30T11:43:44;1.70;;;1.60;;
80249;SDS011;69561;37.974;23.708;2023-07-30T11:46:11;1.92;;;1.73;;
80249;SDS011;69561;37.974;23.708;2023-07-30T11:48:39;2.20;;;1.67;;
80249;SDS011;69561;37.974;23.708;2023-07-30T11:51:06;2.33;;;1.70;;
80249;SDS011;69561;37.974;23.708;2023-07-30T11:53:45;4.38;;;1.77;;
80249;SDS011;69561;37.974;23.708;2023-07-30T11:58:53;7.40;;;2.10;;
80249;SDS011;69561;37.974;23.708;2023-07-30T12:01:22;2.53;;;1.92;;
80249;SDS011;69561;37.974;23.708;2023-07-30T12:03:54;3.38;;;1.88;;
80249;SDS011;69561;37.974;23.708;2023-07-30T12:06:20;2.33;;;1.67;;
80249;SDS011;69561;37.974;23.708;2023-07-30T12:08:48;2.22;;;1.60;;
80249;SDS011;69561;37.974;23.708;2023-07-30T12:11:14;2.78;;;1.88;;
80249;SDS011;69561;37.974;23.708;2023-07-30T12:13:45;1.77;;;1.40;;
80249;SDS011;69561;37.974;23.708;2023-07-30T12:16:11;1.95;;;1.60;;
80249;SDS011;69561;37.974;23.708;2023-07-30T12:18:38;2.00;;;1.60;;
80249;SDS011;69561;37.974;23.708;2023-07-30T12:21:04;1.50;;;1.40;;
80249;SDS011;69561;37.974;23.708;2023-07-30T12:23:32;2.00;;;1.60;;
80249;SDS011;69561;37.974;23.708;2023-07-30T12:26:02;2.40;;;1.40;;
80249;SDS011;69561;37.974;23.708;2023-07-30T12:28:30;2.60;;;1.42;;
80249;SDS011;69561;37.974;23.708;2023-07-30T12:30:56;1.67;;;1.58;;
80249;SDS011;69561;37.974;23.708;2023-07-30T12:33:22;1.73;;;1.58;;
80249;SDS011;69561;37.974;23.708;2023-07-30T12:35:48;1.88;;;1.52;;
80249;SDS011;69561;37.974;23.708;2023-07-30T12:38:15;1.55;;;1.40;;
80249;SDS011;69561;37.974;23.708;2023-07-30T12:40:41;1.70;;;1.60;;
80249;SDS011;69561;37.974;23.708;2023-07-30T12:43:06;1.70;;;1.48;;
80249;SDS011;69561;37.974;23.708;2023-07-30T12:45:34;1.75;;;1.45;;
80249;SDS011;69561;37.974;23.708;2023-07-30T12:48:00;2.03;;;1.60;;
80249;SDS011;69561;37.974;23.708;2023-07-30T12:50:26;2.75;;;1.60;;
80249;SDS011;69561;37.974;23.708;2023-07-30T12:52:52;2.30;;;1.50;;
80249;SDS011;69561;37.974;23.708;2023-07-30T12:55:18;2.00;;;1.60;;
80249;SDS011;69561;37.974;23.708;2023-07-30T12:57:44;2.20;;;1.73;;
80249;SDS011;69561;37.974;23.708;2023-07-30T13:00:09;1.80;;;1.40;;
80249;SDS011;69561;37.974;23.708;2023-07-30T13:02:35;2.20;;;1.70;;
80249;SDS011;69561;37.974;23.708;2023-07-30T13:05:01;1.80;;;1.60;;
80249;SDS011;69561;37.974;23.708;2023-07-30T13:07:29;3.45;;;1.83;;
80249;SDS011;69561;37.974;23.708;2023-07-30T13:10:04;3.58;;;1.63;;
80249;SDS011;69561;37.974;23.708;2023-07-30T13:12:31;3.78;;;1.85;;
80249;SDS011;69561;37.974;23.708;2023-07-30T13:14:57;2.47;;;1.75;;
80249;SDS011;69561;37.974;23.708;2023-07-30T13:17:23;1.75;;;1.60;;
80249;SDS011;69561;37.974;23.708;2023-07-30T13:19:49;2.03;;;1.73;;
80249;SDS011;69561;37.974;23.708;2023-07-30T13:22:15;4.20;;;1.83;;
80249;SDS011;69561;37.974;23.708;2023-07-30T13:24:40;1.88;;;1.73;;
80249;SDS011;69561;37.974;23.708;2023-07-30T13:27:06;8.45;;;1.48;;
80249;SDS011;69561;37.974;23.708;2023-07-30T13:29:32;1.70;;;1.58;;
80249;SDS011;69561;37.974;23.708;2023-07-30T13:31:57;2.30;;;1.70;;
80249;SDS011;69561;37.974;23.708;2023-07-30T13:34:23;2.65;;;1.70;;
80249;SDS011;69561;37.974;23.708;2023-07-30T13:36:49;4.65;;;1.50;;
80249;SDS011;69561;37.974;23.708;2023-07-30T13:39:15;1.90;;;1.67;;
80249;SDS011;69561;37.974;23.708;2023-07-30T13:41:41;1.50;;;1.38;;
80249;SDS011;69561;37.974;23.708;2023-07-30T13:44:06;3.38;;;1.67;;
80249;SDS011;69561;37.974;23.708;2023-07-30T13:46:32;2.42;;;1.60;;
80249;SDS011;69561;37.974;23.708;2023-07-30T13:48:58;1.70;;;1.50;;
80249;SDS011;69561;37.974;23.708;2023-07-30T13:51:23;1.80;;;1.50;;
80249;SDS011;69561;37.974;23.708;2023-07-30T13:53:49;3.50;;;1.70;;
80249;SDS011;69561;37.974;23.708;2023-07-30T13:56:15;1.60;;;1.50;;
80249;SDS011;69561;37.974;23.708;2023-07-30T13:58:41;2.33;;;1.63;;
80249;SDS011;69561;37.974;23.708;2023-07-30T14:01:06;4.38;;;1.63;;
80249;SDS011;69561;37.974;23.708;2023-07-30T14:03:34;2.38;;;1.58;;
80249;SDS011;69561;37.974;23.708;2023-07-30T14:06:00;2.30;;;1.52;;
80249;SDS011;69561;37.974;23.708;2023-07-30T14:08:26;5.45;;;1.80;;
80249;SDS011;69561;37.974;23.708;2023-07-30T14:10:51;1.85;;;1.70;;
80249;SDS011;69561;37.974;23.708;2023-07-30T14:13:17;3.22;;;1.67;;
80249;SDS011;69561;37.974;23.708;2023-07-30T14:15:43;1.63;;;1.52;;
80249;SDS011;69561;37.974;23.708;2023-07-30T14:18:09;2.65;;;1.70;;
80249;SDS011;69561;37.974;23.708;2023-07-30T14:20:35;1.98;;;1.60;;
80249;SDS011;69561;37.974;23.708;2023-07-30T14:23:03;2.35;;;1.80;;
80249;SDS011;69561;37.974;23.708;2023-07-30T14:25:29;3.03;;;1.63;;
80249;SDS011;69561;37.974;23.708;2023-07-30T14:27:55;3.08;;;1.70;;
80249;SDS011;69561;37.974;23.708;2023-07-30T14:30:20;2.22;;;1.70;;
80249;SDS011;69561;37.974;23.708;2023-07-30T14:32:46;1.92;;;1.50;;
80249;SDS011;69561;37.974;23.708;2023-07-30T14:35:12;2.80;;;1.77;;
80249;SDS011;69561;37.974;23.708;2023-07-30T14:37:37;2.33;;;1.70;;
80249;SDS011;69561;37.974;23.708;2023-07-30T14:40:03;1.83;;;1.52;;
80249;SDS011;69561;37.974;23.708;2023-07-30T14:42:29;1.55;;;1.42;;
80249;SDS011;69561;37.974;23.708;2023-07-30T14:44:55;2.05;;;1.67;;
80249;SDS011;69561;37.974;23.708;2023-07-30T14:47:21;1.95;;;1.60;;
80249;SDS011;69561;37.974;23.708;2023-07-30T14:49:47;1.85;;;1.73;;
80249;SDS011;69561;37.974;23.708;2023-07-30T14:52:13;1.85;;;1.60;;
80249;SDS011;69561;37.974;23.708;2023-07-30T14:54:39;2.05;;;1.60;;
80249;SDS011;69561;37.974;23.708;2023-07-30T14:57:05;2.10;;;1.50;;
80249;SDS011;69561;37.974;23.708;2023-07-30T14:59:30;2.10;;;1.90;;
80249;SDS011;69561;37.974;23.708;2023-07-30T15:01:56;3.42;;;1.65;;
80249;SDS011;69561;37.974;23.708;2023-07-30T15:04:22;2.63;;;1.80;;
80249;SDS011;69561;37.974;23.708;2023-07-30T15:06:48;1.60;;;1.38;;
80249;SDS011;69561;37.974;23.708;2023-07-30T15:09:14;3.13;;;1.60;;
80249;SDS011;69561;37.974;23.708;2023-07-30T15:11:40;5.68;;;1.67;;
80249;SDS011;69561;37.974;23.708;2023-07-30T15:14:06;3.13;;;1.63;;
80249;SDS011;69561;37.974;23.708;2023-07-30T15:16:31;1.98;;;1.80;;
80249;SDS011;69561;37.974;23.708;2023-07-30T15:18:57;1.92;;;1.80;;
80249;SDS011;69561;37.974;23.708;2023-07-30T15:21:23;1.85;;;1.60;;
80249;SDS011;69561;37.974;23.708;2023-07-30T15:23:49;1.80;;;1.63;;
80249;SDS011;69561;37.974;23.708;2023-07-30T15:26:14;1.98;;;1.55;;
80249;SDS011;69561;37.974;23.708;2023-07-30T15:28:40;2.38;;;1.60;;
80249;SDS011;69561;37.974;23.708;2023-07-30T15:31:06;2.13;;;1.77;;
80249;SDS011;69561;37.974;23.708;2023-07-30T15:33:32;3.20;;;1.65;;